Pie Town, NM (87827)

3:19 PM MDT on September 30, 2014 (GMT -0600)
Largo Mesa | Change Station
CLOSE
Current Station
Personal Weather Station
Location: Quemado, NM
Elevation: 7812 ft
Nearby Weather Stations

Elev 7812 ft 34.26 °N, 108.58 °W | Updated 8 minutes ago

Clear
Clear
64.2 °F
Feels Like 64.2 °F
N
6.0
Wind Variable Wind from WNW
Gusts 14.0 mph

Today
High -- | Low -- °F
--% Chance of Precip.
Yesterday
High -- | Low -- °F
Precip. -- in
7:07 AM 6:58 PM
Waxing Crescent, 40% visible
Pressure 30.02 in
Visibility 10.0 miles
Clouds Clear
Dew Point 27 °F
Humidity 24%
Rainfall 0.00 in
Snow Depth 0 in , 1 in , 19 in
UV 7 out of 12
Pollen 5.80 out of 12
Air Quality Not available.
Flu Activity Not available.
METAR KGNT 302056Z AUTO 33008KT 10SM CLR 22/M02 A3002 RMK AO2

More Conditions Fewer Conditions

Pressure 30.02 in
Visibility 10.0 miles
Clouds Clear
Dew Point 27 °F
Humidity 24%
Rainfall 0.00 in
Snow Depth 0 in , 1 in , 19 in
UV 7 out of 12
Pollen 5.80 out of 12
Air Quality Not available.
Flu Activity Not available.
METAR KGNT 302056Z AUTO 33008KT 10SM CLR 22/M02 A3002 RMK AO2

More Conditions Fewer Conditions

10-Day Weather Forecast

Almanac

Astronomy

Sep. 30, 2014 Rise Set
Actual Time 7:07 AM MDT 6:58 PM MDT
Civil Twilight 6:41 AM MDT 7:23 PM MDT
Nautical Twilight 6:12 AM MDT 7:52 PM MDT
Astronomical Twilight 5:43 AM MDT 8:21 PM MDT
Moon 1:06 PM MDT 11:43 PM MDT
Length of Visible Light 12h 41m
Length of Day
11h 51m
Tomorrow will be 2m 7s shorter.
Waxing Crescent, 40% of the Moon is Illuminated
Today
Waxing Crescent
Oct 1
First Quarter
Oct 8
Full
Oct 15
Last Quarter
Oct 23
New

Today's Extremes

State Highs State Lows

Community

WunderPhotos

Upload Photos

1,757,749 photos uploaded!

Nearby

Snow Depth

Station Depth Elevation
North Costilla 0 in 10600 ft
Wesner Springs 1 in 11120 ft
Silver Creek Divide 19 in 9000 ft
Quemazon 0 in 9500 ft
Chamita 0 in 8400 ft

Earthquake Activity

City Distance Mag. Time & Date
No recent earthquake activity has been reported nearby.
Minimum magnitude displayed is 2.5.

Coastal Water Temperatures

Place Temperature
No Stations Reporting

Nearby Weather Stations